createdAt,value
2022-08-21T00:01:12.021Z,100.00
2022-08-21T00:03:40.180Z,100.00
2022-08-21T00:06:08.717Z,100.00
2022-08-21T00:08:42.870Z,100.00
2022-08-21T00:11:11.150Z,100.00
2022-08-21T00:13:41.136Z,100.00
2022-08-21T00:16:09.376Z,100.00
2022-08-21T00:18:37.712Z,100.00
2022-08-21T00:21:06.450Z,100.00
2022-08-21T00:23:36.635Z,100.00
2022-08-21T00:26:05.418Z,100.00
2022-08-21T00:28:33.985Z,100.00
2022-08-21T00:31:04.962Z,100.00
2022-08-21T00:33:34.255Z,100.00
2022-08-21T00:36:02.977Z,100.00
2022-08-21T00:38:31.100Z,100.00
2022-08-21T00:41:02.790Z,100.00
2022-08-21T00:43:50.819Z,100.00
2022-08-21T00:46:20.425Z,100.00
2022-08-21T00:48:49.432Z,100.00
2022-08-21T00:51:26.694Z,100.00
2022-08-21T00:53:58.161Z,100.00
2022-08-21T00:56:27.997Z,100.00
2022-08-21T00:58:58.410Z,100.00
2022-08-21T01:01:28.523Z,100.00
2022-08-21T01:03:56.706Z,100.00
2022-08-21T01:06:24.776Z,100.00
2022-08-21T01:08:53.271Z,100.00
2022-08-21T01:11:22.392Z,100.00
2022-08-21T01:13:51.039Z,100.00
2022-08-21T01:16:22.889Z,100.00
2022-08-21T01:18:53.736Z,100.00
2022-08-21T01:21:28.401Z,100.00
2022-08-21T01:23:58.581Z,100.00
2022-08-21T01:26:33.913Z,100.00
2022-08-21T01:29:11.750Z,100.00
2022-08-21T01:31:40.759Z,100.00
2022-08-21T01:34:11.021Z,100.00
2022-08-21T01:36:40.685Z,100.00
2022-08-21T01:39:08.922Z,100.00
2022-08-21T01:41:37.234Z,100.00
2022-08-21T01:44:05.963Z,100.00
2022-08-21T01:46:34.696Z,100.00
2022-08-21T01:49:03.105Z,100.00
2022-08-21T01:51:31.249Z,100.00
2022-08-21T01:54:00.744Z,100.00
2022-08-21T01:56:29.027Z,100.00
2022-08-21T01:58:57.336Z,100.00
2022-08-21T02:01:25.607Z,100.00
2022-08-21T02:03:53.730Z,100.00
2022-08-21T02:06:21.905Z,100.00
2022-08-21T02:08:51.609Z,100.00
2022-08-21T02:11:21.731Z,100.00
2022-08-21T02:13:49.843Z,100.00
2022-08-21T02:16:19.255Z,100.00
2022-08-21T02:18:48.283Z,100.00
2022-08-21T02:21:16.762Z,100.00
2022-08-21T02:23:45.087Z,100.00
2022-08-21T02:26:14.243Z,100.00
2022-08-21T02:28:43.802Z,100.00
2022-08-21T02:31:12.585Z,100.00
2022-08-21T02:33:41.252Z,100.00
2022-08-21T02:36:12.281Z,100.00
2022-08-21T02:38:42.247Z,100.00
2022-08-21T02:41:14.643Z,100.00
2022-08-21T02:43:44.598Z,100.00
2022-08-21T02:46:19.535Z,100.00
2022-08-21T02:48:48.556Z,100.00
2022-08-21T02:51:19.491Z,100.00
2022-08-21T02:53:48.701Z,100.00
2022-08-21T02:56:21.243Z,100.00
2022-08-21T02:58:54.170Z,100.00
2022-08-21T03:01:22.966Z,100.00
2022-08-21T03:03:52.008Z,100.00
2022-08-21T03:06:22.936Z,100.00
2022-08-21T03:08:51.980Z,100.00
2022-08-21T03:11:20.198Z,100.00
2022-08-21T03:13:48.361Z,100.00
2022-08-21T03:16:17.914Z,100.00
2022-08-21T03:18:46.113Z,100.00
2022-08-21T03:21:14.298Z,100.00
2022-08-21T03:23:43.052Z,100.00
2022-08-21T03:26:12.545Z,100.00
2022-08-21T03:28:41.040Z,100.00
2022-08-21T03:31:09.705Z,100.00
2022-08-21T03:33:39.357Z,100.00
2022-08-21T03:36:09.870Z,100.00
2022-08-21T03:38:39.956Z,100.00
2022-08-21T03:41:09.024Z,100.00
2022-08-21T03:43:37.810Z,100.00
2022-08-21T03:46:07.831Z,100.00
2022-08-21T03:48:39.020Z,100.00
2022-08-21T03:51:07.684Z,100.00
2022-08-21T03:53:36.262Z,100.00
2022-08-21T03:56:05.676Z,100.00
2022-08-21T03:58:34.069Z,100.00
2022-08-21T04:01:03.305Z,100.00
2022-08-21T04:03:31.535Z,100.00
2022-08-21T04:06:01.006Z,100.00
2022-08-21T04:08:29.116Z,100.00
2022-08-21T04:11:00.588Z,100.00
2022-08-21T04:13:30.047Z,100.00
2022-08-21T04:15:59.643Z,100.00
2022-08-21T04:18:27.753Z,100.00
2022-08-21T04:20:58.434Z,100.00
2022-08-21T04:23:28.471Z,100.00
2022-08-21T04:25:58.324Z,100.00
2022-08-21T04:28:28.825Z,100.00
2022-08-21T04:30:59.497Z,100.00
2022-08-21T04:33:27.648Z,100.00
2022-08-21T04:35:55.957Z,100.00
2022-08-21T04:38:24.237Z,100.00
2022-08-21T04:40:54.504Z,100.00
2022-08-21T04:43:24.486Z,100.00
2022-08-21T04:45:54.097Z,100.00
2022-08-21T04:48:25.178Z,100.00
2022-08-21T04:50:59.490Z,100.00
2022-08-21T04:53:35.958Z,100.00
2022-08-21T04:56:10.439Z,100.00
2022-08-21T04:58:40.336Z,100.00
2022-08-21T05:01:15.533Z,100.00
2022-08-21T05:03:44.539Z,100.00
2022-08-21T05:06:15.344Z,100.00
2022-08-21T05:08:44.798Z,100.00
2022-08-21T05:11:14.471Z,100.00
2022-08-21T05:13:42.923Z,100.00
2022-08-21T05:16:11.626Z,100.00
2022-08-21T05:18:39.967Z,100.00
2022-08-21T05:21:08.044Z,100.00
2022-08-21T05:23:36.160Z,100.00
2022-08-21T05:26:05.416Z,100.00
2022-08-21T05:28:35.624Z,100.00
2022-08-21T05:31:03.769Z,100.00
2022-08-21T05:33:32.122Z,100.00
2022-08-21T05:36:04.281Z,100.00
2022-08-21T05:38:32.419Z,100.00
2022-08-21T05:41:00.514Z,100.00
2022-08-21T05:43:28.941Z,100.00
2022-08-21T05:45:58.431Z,100.00
2022-08-21T05:48:26.739Z,100.00
2022-08-21T05:50:55.519Z,100.00
2022-08-21T05:53:25.924Z,100.00
2022-08-21T05:55:54.575Z,100.00
2022-08-21T05:58:24.967Z,100.00
2022-08-21T06:00:54.548Z,100.00
2022-08-21T06:03:27.101Z,100.00
2022-08-21T06:05:56.802Z,100.00
2022-08-21T06:08:25.569Z,100.00
2022-08-21T06:10:54.838Z,100.00
2022-08-21T06:13:24.082Z,100.00
2022-08-21T06:16:02.349Z,100.00
2022-08-21T06:18:32.027Z,100.00
2022-08-21T06:21:00.079Z,100.00
2022-08-21T06:23:33.457Z,100.00
2022-08-21T06:26:02.674Z,100.00
2022-08-21T06:28:31.357Z,100.00
2022-08-21T06:30:59.741Z,100.00
2022-08-21T06:33:32.362Z,100.00
2022-08-21T06:36:02.342Z,100.00
2022-08-21T06:38:30.495Z,100.00
2022-08-21T06:40:59.588Z,100.00
2022-08-21T06:43:39.300Z,100.00
2022-08-21T06:46:08.142Z,100.00
2022-08-21T06:48:36.605Z,100.00
2022-08-21T06:51:06.894Z,100.00
2022-08-21T06:53:35.458Z,100.00
2022-08-21T06:56:04.198Z,100.00
2022-08-21T06:58:32.645Z,100.00
2022-08-21T07:01:01.501Z,100.00
2022-08-21T07:03:32.216Z,100.00
2022-08-21T07:06:00.428Z,100.00
2022-08-21T07:08:30.458Z,100.00
2022-08-21T07:11:00.088Z,100.00
2022-08-21T07:13:28.286Z,100.00
2022-08-21T07:16:00.250Z,100.00
2022-08-21T07:18:32.121Z,100.00
2022-08-21T07:21:00.226Z,100.00
2022-08-21T07:23:32.859Z,100.00
2022-08-21T07:26:01.603Z,100.00
2022-08-21T07:28:30.277Z,100.00
2022-08-21T07:31:00.036Z,100.00
2022-08-21T07:33:29.710Z,100.00
2022-08-21T07:35:58.372Z,100.00
2022-08-21T07:38:28.064Z,100.00
2022-08-21T07:41:00.025Z,100.00
2022-08-21T07:43:28.402Z,100.00
2022-08-21T07:45:58.791Z,100.00
2022-08-21T07:48:26.902Z,100.00
2022-08-21T07:50:56.434Z,100.00
2022-08-21T07:53:24.565Z,100.00
2022-08-21T07:55:52.701Z,100.00
2022-08-21T07:58:22.340Z,100.00
2022-08-21T08:00:50.597Z,100.00
2022-08-21T08:03:20.555Z,100.00
2022-08-21T08:05:57.730Z,100.00
2022-08-21T08:08:25.858Z,100.00
2022-08-21T08:10:55.188Z,100.00
2022-08-21T08:13:24.792Z,100.00
2022-08-21T08:15:53.481Z,100.00
2022-08-21T08:18:21.784Z,100.00
2022-08-21T08:20:50.384Z,100.00
2022-08-21T08:23:18.536Z,100.00
2022-08-21T08:25:47.006Z,100.00
2022-08-21T08:28:17.169Z,100.00
2022-08-21T08:30:48.326Z,100.00
2022-08-21T08:33:17.502Z,100.00
2022-08-21T08:35:49.264Z,100.00
2022-08-21T08:38:21.325Z,100.00
2022-08-21T08:40:55.717Z,100.00
2022-08-21T08:43:24.032Z,100.00
2022-08-21T08:45:56.204Z,100.00
2022-08-21T08:48:39.024Z,100.00
2022-08-21T08:51:10.805Z,100.00
2022-08-21T08:53:51.637Z,100.00
2022-08-21T08:56:24.543Z,100.00
2022-08-21T08:59:01.495Z,100.00
2022-08-21T09:01:35.497Z,100.00
2022-08-21T09:04:06.597Z,100.00
2022-08-21T09:06:45.475Z,100.00
2022-08-21T09:09:25.421Z,100.00
2022-08-21T09:12:02.861Z,100.00
2022-08-21T09:14:48.019Z,100.00
2022-08-21T09:17:30.066Z,100.00
2022-08-21T09:20:15.279Z,100.00
2022-08-21T09:22:56.781Z,100.00
2022-08-21T09:25:28.913Z,100.00
2022-08-21T09:27:57.512Z,100.00
2022-08-21T09:30:29.991Z,100.00
2022-08-21T09:33:00.740Z,100.00
2022-08-21T09:35:29.446Z,100.00
2022-08-21T09:38:00.523Z,100.00
2022-08-21T09:40:38.310Z,100.00
2022-08-21T09:43:09.429Z,100.00
2022-08-21T09:45:38.386Z,100.00
2022-08-21T09:48:17.408Z,100.00
2022-08-21T09:50:46.456Z,100.00
2022-08-21T09:53:20.497Z,100.00
2022-08-21T09:56:12.804Z,100.00
2022-08-21T09:58:46.912Z,100.00
2022-08-21T10:01:18.975Z,100.00
2022-08-21T10:04:03.826Z,100.00
2022-08-21T10:06:32.567Z,100.00
2022-08-21T10:09:07.203Z,100.00
2022-08-21T10:11:36.825Z,100.00
2022-08-21T10:14:14.704Z,100.00
2022-08-21T10:16:55.506Z,100.00
2022-08-21T10:19:33.291Z,100.00
2022-08-21T10:22:07.523Z,100.00
2022-08-21T10:24:41.860Z,100.00
2022-08-21T10:27:18.456Z,100.00
2022-08-21T10:29:54.626Z,100.00
2022-08-21T10:32:38.232Z,100.00
2022-08-21T10:35:14.720Z,100.00
2022-08-21T10:38:02.308Z,100.00
2022-08-21T10:40:37.316Z,100.00
2022-08-21T10:43:18.919Z,100.00
2022-08-21T10:45:58.925Z,100.00
2022-08-21T10:48:31.715Z,100.00
2022-08-21T10:51:08.727Z,100.00
2022-08-21T10:53:50.900Z,100.00
2022-08-21T10:56:23.676Z,100.00
2022-08-21T10:59:23.903Z,100.00
2022-08-21T11:01:59.079Z,100.00
2022-08-21T11:04:49.224Z,100.00
2022-08-21T11:07:29.862Z,100.00
2022-08-21T11:10:08.049Z,100.00
2022-08-21T11:12:44.861Z,100.00
2022-08-21T11:15:29.940Z,100.00
2022-08-21T11:18:12.316Z,100.00
2022-08-21T11:20:45.730Z,100.00
2022-08-21T11:23:21.183Z,100.00
2022-08-21T11:25:54.455Z,100.00
2022-08-21T11:28:29.358Z,100.00
2022-08-21T11:31:10.108Z,100.00
2022-08-21T11:33:50.143Z,100.00
2022-08-21T11:36:26.715Z,100.00
2022-08-21T11:39:02.660Z,100.00
2022-08-21T11:41:34.549Z,100.00
2022-08-21T11:44:14.096Z,100.00
2022-08-21T11:46:49.352Z,100.00
2022-08-21T11:49:34.447Z,100.00
2022-08-21T11:52:16.385Z,100.00
2022-08-21T11:54:52.012Z,100.00
2022-08-21T11:57:25.980Z,100.00
2022-08-21T12:00:01.789Z,100.00
2022-08-21T12:02:36.584Z,100.00
2022-08-21T12:05:09.291Z,100.00
2022-08-21T12:07:42.224Z,100.00
2022-08-21T12:10:15.627Z,100.00
2022-08-21T12:12:46.620Z,100.00
2022-08-21T12:15:31.543Z,100.00
2022-08-21T12:18:03.752Z,100.00
2022-08-21T12:20:50.153Z,100.00
2022-08-21T12:23:28.115Z,100.00
2022-08-21T12:26:27.359Z,100.00
2022-08-21T12:29:07.980Z,100.00
2022-08-21T12:31:36.147Z,100.00
2022-08-21T12:34:12.618Z,100.00
2022-08-21T12:36:46.374Z,100.00
2022-08-21T12:39:19.566Z,100.00
2022-08-21T12:41:53.325Z,100.00
2022-08-21T12:44:28.508Z,100.00
2022-08-21T12:47:01.186Z,100.00
2022-08-21T12:49:35.366Z,100.00
2022-08-21T12:52:07.983Z,100.00
2022-08-21T12:54:42.135Z,100.00
2022-08-21T12:57:21.864Z,100.00
2022-08-21T12:59:55.455Z,100.00
2022-08-21T13:02:27.125Z,100.00
2022-08-21T13:04:57.808Z,100.00
2022-08-21T13:07:31.819Z,100.00
2022-08-21T13:10:02.032Z,100.00
2022-08-21T13:12:32.870Z,100.00
2022-08-21T13:15:09.089Z,100.00
2022-08-21T13:17:41.673Z,100.00
2022-08-21T13:20:12.270Z,100.00
2022-08-21T13:22:44.738Z,100.00
2022-08-21T13:25:14.763Z,100.00
2022-08-21T13:27:48.517Z,100.00
2022-08-21T13:30:21.851Z,100.00
2022-08-21T13:32:53.005Z,100.00
2022-08-21T13:35:26.815Z,98.50
2022-08-21T13:37:57.225Z,97.04
2022-08-21T13:40:30.272Z,97.50
2022-08-21T13:43:02.836Z,97.38
2022-08-21T13:45:34.729Z,95.71
2022-08-21T13:48:06.654Z,95.20
2022-08-21T13:50:38.793Z,96.67
2022-08-21T13:53:10.490Z,97.70
2022-08-21T13:55:42.758Z,95.90
2022-08-21T13:58:13.995Z,97.15
2022-08-21T14:00:48.227Z,97.77
2022-08-21T14:03:29.953Z,98.35
2022-08-21T14:06:00.360Z,98.77
2022-08-21T14:08:35.646Z,100.00
2022-08-21T14:11:06.486Z,97.74
2022-08-21T14:13:43.617Z,97.09
2022-08-21T14:16:16.747Z,96.22
2022-08-21T14:18:52.684Z,92.43
2022-08-21T14:21:33.533Z,91.60
2022-08-21T14:24:05.294Z,91.26
2022-08-21T14:26:35.228Z,89.64
2022-08-21T14:29:10.814Z,90.52
2022-08-21T14:31:43.041Z,90.08
2022-08-21T14:34:19.491Z,90.20
2022-08-21T14:36:48.483Z,88.00
2022-08-21T14:39:16.684Z,87.38
2022-08-21T14:41:47.036Z,88.53
2022-08-21T14:44:17.385Z,89.01
2022-08-21T14:46:55.215Z,89.01
2022-08-21T14:49:24.547Z,87.46
2022-08-21T14:51:58.750Z,88.55
2022-08-21T14:54:30.917Z,89.49
2022-08-21T14:57:02.188Z,89.56
2022-08-21T14:59:33.647Z,88.93
2022-08-21T15:02:03.142Z,89.15
2022-08-21T15:04:31.372Z,90.49
2022-08-21T15:06:59.510Z,89.76
2022-08-21T15:09:27.701Z,88.01
2022-08-21T15:11:59.398Z,87.47
2022-08-21T15:14:31.074Z,88.21
2022-08-21T15:17:03.789Z,89.81
2022-08-21T15:19:34.180Z,90.77
2022-08-21T15:22:02.674Z,89.79
2022-08-21T15:24:32.547Z,90.82
2022-08-21T15:27:03.706Z,89.76
2022-08-21T15:29:33.647Z,89.38
2022-08-21T15:32:20.309Z,91.10
2022-08-21T15:34:49.798Z,91.73
2022-08-21T15:37:17.870Z,91.47
2022-08-21T15:39:52.299Z,92.49
2022-08-21T15:42:23.718Z,92.58
2022-08-21T15:44:52.294Z,92.70
2022-08-21T15:47:24.682Z,93.89
2022-08-21T15:49:53.278Z,93.85
2022-08-21T15:52:23.269Z,91.38
2022-08-21T15:54:52.089Z,91.29
2022-08-21T15:57:23.133Z,91.65
2022-08-21T15:59:54.392Z,91.90
2022-08-21T16:02:26.615Z,91.14
2022-08-21T16:04:55.199Z,91.44
2022-08-21T16:07:23.331Z,90.89
2022-08-21T16:09:51.652Z,91.92
2022-08-21T16:12:24.002Z,93.11
2022-08-21T16:14:54.452Z,92.53
2022-08-21T16:17:29.840Z,90.94
2022-08-21T16:20:00.016Z,91.29
2022-08-21T16:22:37.528Z,91.42
2022-08-21T16:25:13.473Z,91.60
2022-08-21T16:27:43.638Z,92.77
2022-08-21T16:30:16.560Z,94.53
2022-08-21T16:32:46.939Z,95.33
2022-08-21T16:35:18.976Z,96.19
2022-08-21T16:37:52.379Z,96.53
2022-08-21T16:40:23.267Z,97.08
2022-08-21T16:42:51.546Z,96.81
2022-08-21T16:45:21.962Z,97.40
2022-08-21T16:47:51.797Z,97.61
2022-08-21T16:50:25.474Z,98.30
2022-08-21T16:52:54.574Z,98.98
2022-08-21T16:55:23.443Z,98.91
2022-08-21T16:57:51.657Z,98.64
2022-08-21T17:00:20.200Z,98.92
2022-08-21T17:02:51.309Z,99.16
2022-08-21T17:05:21.309Z,99.36
2022-08-21T17:07:49.803Z,99.65
2022-08-21T17:10:19.373Z,99.65
2022-08-21T17:12:56.005Z,99.79
2022-08-21T17:15:27.447Z,100.00
2022-08-21T17:17:57.199Z,100.00
2022-08-21T17:20:27.360Z,100.00
2022-08-21T17:22:55.865Z,100.00
2022-08-21T17:25:25.054Z,100.00
2022-08-21T17:27:54.207Z,100.00
2022-08-21T17:30:23.395Z,100.00
2022-08-21T17:32:54.187Z,100.00
2022-08-21T17:35:23.218Z,100.00
2022-08-21T17:37:53.603Z,100.00
2022-08-21T17:40:22.691Z,100.00
2022-08-21T17:42:51.196Z,100.00
2022-08-21T17:45:20.883Z,100.00
2022-08-21T17:47:49.656Z,100.00
2022-08-21T17:50:22.620Z,100.00
2022-08-21T17:52:53.680Z,100.00
2022-08-21T17:55:23.242Z,100.00
2022-08-21T17:57:55.620Z,100.00
2022-08-21T18:00:26.163Z,100.00
2022-08-21T18:03:03.237Z,100.00
2022-08-21T18:05:31.485Z,100.00
2022-08-21T18:08:01.260Z,100.00
2022-08-21T18:10:30.297Z,100.00
2022-08-21T18:12:59.298Z,100.00
2022-08-21T18:15:27.767Z,100.00
2022-08-21T18:17:56.782Z,100.00
2022-08-21T18:20:25.333Z,100.00
2022-08-21T18:22:53.806Z,100.00
2022-08-21T18:25:24.763Z,100.00
2022-08-21T18:27:53.043Z,100.00
2022-08-21T18:30:25.423Z,100.00
2022-08-21T18:32:55.808Z,100.00
2022-08-21T18:35:26.690Z,100.00
2022-08-21T18:37:55.518Z,100.00
2022-08-21T18:40:25.097Z,100.00
2022-08-21T18:42:55.777Z,100.00
2022-08-21T18:45:25.372Z,100.00
2022-08-21T18:47:56.420Z,100.00
2022-08-21T18:50:29.902Z,100.00
2022-08-21T18:52:58.376Z,100.00
2022-08-21T18:55:30.629Z,100.00
2022-08-21T18:57:59.896Z,100.00
2022-08-21T19:00:33.437Z,100.00
2022-08-21T19:03:06.121Z,100.00
2022-08-21T19:05:36.486Z,100.00
2022-08-21T19:08:06.161Z,100.00
2022-08-21T19:10:37.099Z,100.00
2022-08-21T19:13:07.236Z,100.00
2022-08-21T19:15:38.138Z,100.00
2022-08-21T19:18:12.839Z,100.00
2022-08-21T19:20:42.989Z,100.00
2022-08-21T19:23:14.371Z,100.00
2022-08-21T19:25:46.772Z,100.00
2022-08-21T19:28:27.222Z,100.00
2022-08-21T19:31:00.643Z,100.00
2022-08-21T19:33:34.651Z,100.00
2022-08-21T19:36:03.535Z,100.00
2022-08-21T19:38:31.902Z,100.00
2022-08-21T19:41:02.357Z,100.00
2022-08-21T19:43:33.090Z,100.00
2022-08-21T19:46:02.293Z,100.00
2022-08-21T19:48:31.612Z,100.00
2022-08-21T19:51:00.095Z,100.00
2022-08-21T19:53:28.697Z,100.00
2022-08-21T19:55:58.045Z,100.00
2022-08-21T19:58:38.519Z,100.00
2022-08-21T20:01:16.562Z,100.00
2022-08-21T20:03:54.419Z,100.00
2022-08-21T20:06:24.391Z,100.00
2022-08-21T20:08:54.645Z,100.00
2022-08-21T20:11:31.303Z,100.00
2022-08-21T20:14:02.310Z,100.00
2022-08-21T20:16:31.333Z,100.00
2022-08-21T20:19:00.309Z,100.00
2022-08-21T20:21:28.788Z,100.00
2022-08-21T20:23:57.332Z,100.00
2022-08-21T20:26:26.490Z,100.00
2022-08-21T20:28:55.206Z,100.00
2022-08-21T20:31:28.094Z,100.00
2022-08-21T20:33:56.637Z,100.00
2022-08-21T20:36:25.550Z,100.00
2022-08-21T20:38:54.122Z,100.00
2022-08-21T20:41:30.968Z,100.00
2022-08-21T20:44:01.032Z,100.00
2022-08-21T20:46:33.335Z,100.00
2022-08-21T20:49:02.093Z,100.00
2022-08-21T20:51:36.055Z,100.00
2022-08-21T20:54:09.952Z,100.00
2022-08-21T20:56:47.551Z,100.00
2022-08-21T20:59:27.637Z,100.00
2022-08-21T21:02:12.003Z,100.00
2022-08-21T21:04:46.006Z,100.00
2022-08-21T21:07:19.582Z,100.00
2022-08-21T21:09:51.945Z,100.00
2022-08-21T21:12:28.017Z,100.00
2022-08-21T21:14:59.636Z,100.00
2022-08-21T21:17:38.501Z,100.00
2022-08-21T21:20:11.756Z,100.00
2022-08-21T21:22:48.119Z,100.00
2022-08-21T21:25:19.934Z,100.00
2022-08-21T21:27:54.996Z,100.00
2022-08-21T21:30:28.535Z,100.00
2022-08-21T21:32:58.283Z,100.00
2022-08-21T21:35:36.383Z,100.00
2022-08-21T21:38:13.054Z,100.00
2022-08-21T21:40:51.493Z,100.00
2022-08-21T21:43:32.216Z,100.00
2022-08-21T21:46:22.093Z,100.00
2022-08-21T21:49:03.683Z,100.00
2022-08-21T21:51:55.805Z,100.00
2022-08-21T21:54:56.256Z,100.00
2022-08-21T21:57:49.391Z,100.00
2022-08-21T22:00:20.969Z,100.00
2022-08-21T22:03:00.747Z,100.00
2022-08-21T22:05:43.221Z,100.00
2022-08-21T22:08:21.128Z,100.00
2022-08-21T22:10:58.771Z,100.00
2022-08-21T22:13:38.604Z,100.00
2022-08-21T22:16:08.183Z,100.00
2022-08-21T22:18:45.020Z,100.00
2022-08-21T22:21:35.146Z,100.00
2022-08-21T22:24:11.440Z,100.00
2022-08-21T22:26:44.330Z,100.00
2022-08-21T22:29:17.457Z,100.00
2022-08-21T22:32:01.104Z,100.00
2022-08-21T22:34:33.119Z,100.00
2022-08-21T22:37:05.949Z,100.00
2022-08-21T22:39:39.121Z,100.00
2022-08-21T22:42:11.376Z,100.00
2022-08-21T22:44:50.963Z,100.00
2022-08-21T22:47:22.635Z,100.00
2022-08-21T22:49:54.077Z,100.00
2022-08-21T22:52:27.380Z,100.00
2022-08-21T22:55:01.341Z,100.00
2022-08-21T22:57:31.998Z,100.00
2022-08-21T23:00:02.985Z,100.00
2022-08-21T23:02:40.840Z,100.00
2022-08-21T23:05:21.652Z,100.00
2022-08-21T23:07:52.050Z,100.00
2022-08-21T23:10:29.871Z,100.00
2022-08-21T23:13:09.150Z,100.00
2022-08-21T23:15:46.744Z,100.00
2022-08-21T23:18:28.461Z,100.00
2022-08-21T23:21:05.267Z,100.00
2022-08-21T23:23:44.191Z,100.00
2022-08-21T23:29:26.523Z,100.00
2022-08-21T23:32:03.296Z,100.00
2022-08-21T23:34:42.312Z,100.00
2022-08-21T23:40:50.493Z,100.00
2022-08-21T23:43:45.532Z,100.00
2022-08-21T23:46:41.615Z,100.00
2022-08-21T23:49:25.417Z,100.00
2022-08-21T23:52:04.388Z,100.00
2022-08-21T23:54:47.372Z,100.00
2022-08-21T23:57:31.543Z,100.00
